Time;durP1;ratioP1;P1;durP2;ratioP2;P2;SDS_P1;SDS_P2;PMS_P1;PMS_P2;Temp;Humidity;BMP_temperature;BMP_pressure;BME280_temperature;BME280_humidity;BME280_pressure;Samples;Min_cycle;Max_cycle;Signal;HPM_P1;HPM_P2
2023/04/06 00:00:08;;;;;;;12.27;5.20;;;;;;;-0.10;100.00;101511.41;6216630;23;20034;-71
2023/04/06 00:02:35;;;;;;;11.20;4.93;;;;;;;-0.01;100.00;101505.72;6214936;23;20343;-71
2023/04/06 00:05:02;;;;;;;9.57;5.35;;;;;;;-0.05;100.00;101502.38;6216567;23;20029;-71
2023/04/06 00:07:29;;;;;;;9.18;4.97;;;;;;;-0.02;100.00;101494.31;6217210;23;20020;-72
2023/04/06 00:09:56;;;;;;;13.70;5.30;;;;;;;-0.10;100.00;101501.72;6217503;23;20357;-71
2023/04/06 00:12:22;;;;;;;10.23;5.03;;;;;;;0.05;100.00;101498.38;6216774;23;20416;-71
2023/04/06 00:14:49;;;;;;;9.13;5.15;;;;;;;-0.04;100.00;101496.16;6215766;23;20016;-71
2023/04/06 00:17:15;;;;;;;11.45;4.93;;;;;;;-0.06;100.00;101492.72;6215280;23;20103;-72
2023/04/06 00:19:42;;;;;;;11.27;5.25;;;;;;;-0.09;100.00;101487.59;6215918;23;20027;-70
2023/04/06 00:22:08;;;;;;;9.85;4.85;;;;;;;0.00;100.00;101495.06;6215431;23;20024;-71
2023/04/06 00:24:35;;;;;;;12.25;5.32;;;;;;;0.03;100.00;101491.44;6215995;23;20031;-70
2023/04/06 00:27:02;;;;;;;11.20;5.00;;;;;;;-0.06;100.00;101484.81;6217314;23;20047;-73
2023/04/06 00:29:28;;;;;;;11.15;5.00;;;;;;;-0.11;100.00;101492.09;6212568;23;20020;-73
2023/04/06 00:31:55;;;;;;;15.23;5.88;;;;;;;-0.11;100.00;101489.47;6225067;23;20039;-73
2023/04/06 00:34:21;;;;;;;10.88;5.00;;;;;;;-0.16;100.00;101486.16;6241511;23;20028;-73
2023/04/06 00:36:48;;;;;;;15.60;4.90;;;;;;;-0.20;100.00;101484.59;6242902;23;20091;-74
2023/04/06 00:39:14;;;;;;;10.60;4.90;;;;;;;-0.17;100.00;101486.25;6241136;23;20031;-71
2023/04/06 00:41:48;;;;;;;12.32;5.18;;;;;;;-0.20;100.00;101487.25;6242772;23;20016;-71
2023/04/06 00:44:15;;;;;;;16.77;5.22;;;;;;;-0.27;100.00;101485.81;6229747;23;20026;-74
2023/04/06 00:46:42;;;;;;;10.50;5.22;;;;;;;-0.33;100.00;101483.47;6242298;23;20030;-71
2023/04/06 00:49:08;;;;;;;9.60;5.10;;;;;;;-0.29;100.00;101480.63;6241300;23;20095;-73
2023/04/06 00:51:35;;;;;;;12.90;6.05;;;;;;;-0.36;100.00;101479.22;6240937;23;20020;-72
2023/04/06 00:54:02;;;;;;;10.10;5.70;;;;;;;-0.33;100.00;101480.81;6241214;23;20024;-72
2023/04/06 00:56:29;;;;;;;10.57;5.45;;;;;;;-0.49;100.00;101478.91;6241291;23;20030;-72
2023/04/06 00:58:55;;;;;;;18.40;5.20;;;;;;;-0.42;100.00;101479.50;6241720;23;20028;-73
2023/04/06 01:01:23;;;;;;;12.65;4.97;;;;;;;-0.44;100.00;101487.44;6239605;23;20391;-73
2023/04/06 01:03:50;;;;;;;12.32;5.50;;;;;;;-0.52;100.00;101478.19;6241234;23;20519;-74
2023/04/06 01:07:13;;;;;;;12.32;5.47;;;;;;;-0.54;100.00;101475.63;6241328;23;20072;-73
2023/04/06 01:09:41;;;;;;;13.40;5.70;;;;;;;-0.59;100.00;101479.41;6240812;23;20026;-72
2023/04/06 01:12:08;;;;;;;13.10;5.43;;;;;;;-0.73;100.00;101478.25;6240836;23;20091;-72
2023/04/06 01:14:35;;;;;;;9.88;5.10;;;;;;;-0.66;100.00;101478.81;6241454;23;20417;-72
2023/04/06 01:17:01;;;;;;;8.70;5.32;;;;;;;-0.76;100.00;101475.75;6239839;23;20020;-71
2023/04/06 01:19:28;;;;;;;15.40;5.78;;;;;;;-0.82;100.00;101475.16;6240374;23;20027;-73
2023/04/06 01:21:55;;;;;;;14.48;6.00;;;;;;;-0.77;100.00;101483.72;6240177;23;20449;-72
2023/04/06 01:24:21;;;;;;;11.77;5.57;;;;;;;-0.77;100.00;101481.94;6241234;23;20149;-72
2023/04/06 01:26:48;;;;;;;10.93;5.57;;;;;;;-0.79;100.00;101473.25;6240207;23;20030;-73
2023/04/06 01:29:15;;;;;;;10.88;5.50;;;;;;;-0.79;100.00;101478.50;6240876;22;20020;-71
2023/04/06 01:31:41;;;;;;;8.65;5.20;;;;;;;-0.80;100.00;101473.31;6231206;23;20024;-73
2023/04/06 01:34:08;;;;;;;12.38;5.45;;;;;;;-0.80;100.00;101474.19;6241249;23;20035;-71
2023/04/06 01:36:35;;;;;;;10.57;5.40;;;;;;;-0.75;100.00;101472.19;6240041;23;20016;-73
2023/04/06 01:39:01;;;;;;;12.18;5.00;;;;;;;-0.93;100.00;101473.84;6240589;23;20024;-73
2023/04/06 01:41:28;;;;;;;10.77;5.15;;;;;;;-0.94;100.00;101476.56;6240913;23;20042;-73
2023/04/06 01:43:54;;;;;;;12.60;5.63;;;;;;;-0.76;100.00;101474.91;6238163;23;20020;-73
2023/04/06 01:46:21;;;;;;;16.00;6.22;;;;;;;-0.73;100.00;101469.50;6240544;23;20357;-74
2023/04/06 01:48:48;;;;;;;10.30;5.32;;;;;;;-0.79;100.00;101469.75;6240525;23;20099;-72
2023/04/06 01:51:15;;;;;;;13.40;5.25;;;;;;;-1.07;100.00;101470.13;6241694;23;20096;-73
2023/04/06 01:53:41;;;;;;;13.00;4.72;;;;;;;-0.87;100.00;101471.88;6240970;23;20027;-71
2023/04/06 01:56:08;;;;;;;15.80;5.93;;;;;;;-1.02;100.00;101469.00;6240273;23;20020;-72
2023/04/06 01:58:35;;;;;;;10.05;5.30;;;;;;;-0.92;100.00;101465.06;6240570;23;20043;-72
2023/04/06 02:01:02;;;;;;;14.10;5.07;;;;;;;-0.95;100.00;101464.34;6240118;23;20026;-71
2023/04/06 02:03:29;;;;;;;14.27;5.38;;;;;;;-0.96;100.00;101467.88;6238400;23;20090;-73
2023/04/06 02:05:55;;;;;;;10.95;5.05;;;;;;;-1.02;100.00;101466.38;6240001;23;20509;-73
2023/04/06 02:08:22;;;;;;;10.07;5.22;;;;;;;-0.96;100.00;101466.09;6241703;23;20095;-73
2023/04/06 02:10:48;;;;;;;10.75;5.43;;;;;;;-1.00;100.00;101466.31;6240496;23;20405;-73
2023/04/06 02:13:15;;;;;;;9.93;5.45;;;;;;;-1.06;100.00;101461.28;6240119;23;20020;-73
2023/04/06 02:15:41;;;;;;;12.32;5.55;;;;;;;-1.08;100.00;101457.91;6229205;23;20020;-72
2023/04/06 02:18:09;;;;;;;15.90;5.55;;;;;;;-1.00;100.00;101464.50;6239584;23;20020;-73
2023/04/06 02:20:36;;;;;;;12.73;5.13;;;;;;;-0.96;100.00;101473.13;6210174;23;20062;-73
2023/04/06 02:23:03;;;;;;;14.20;5.82;;;;;;;-1.05;100.00;101474.41;6231750;23;20024;-72
2023/04/06 02:25:29;;;;;;;13.73;5.45;;;;;;;-1.14;100.00;101464.25;6223889;23;20020;-72
2023/04/06 02:27:56;;;;;;;16.17;5.28;;;;;;;-1.06;100.00;101464.78;6217344;23;20361;-73
2023/04/06 02:30:22;;;;;;;11.35;4.97;;;;;;;-1.07;100.00;101470.97;6239739;22;20031;-72
2023/04/06 02:32:49;;;;;;;10.63;5.53;;;;;;;-1.07;100.00;101464.84;6241201;23;20046;-72
2023/04/06 02:35:16;;;;;;;11.25;5.20;;;;;;;-1.02;100.00;101463.75;6239197;23;20028;-73
2023/04/06 02:37:42;;;;;;;14.15;5.35;;;;;;;-1.02;100.00;101473.41;6240412;23;20028;-72
2023/04/06 02:40:09;;;;;;;13.27;5.60;;;;;;;-1.03;100.00;101476.97;6240237;23;20028;-73
2023/04/06 02:42:36;;;;;;;9.27;5.10;;;;;;;-1.21;100.00;101465.47;6224433;23;20381;-72
2023/04/06 02:45:03;;;;;;;10.15;5.68;;;;;;;-1.17;100.00;101473.16;6240093;23;20024;-73
2023/04/06 02:47:29;;;;;;;14.25;6.00;;;;;;;-1.33;100.00;101466.84;6240340;23;20079;-72
2023/04/06 02:49:56;;;;;;;13.02;5.38;;;;;;;-1.36;100.00;101468.75;6241031;23;20091;-73
2023/04/06 02:52:22;;;;;;;12.25;4.95;;;;;;;-1.61;100.00;101475.06;6239944;23;20352;-72
2023/04/06 02:54:50;;;;;;;11.98;5.38;;;;;;;-1.74;100.00;101465.94;6241245;23;20453;-72
2023/04/06 02:57:17;;;;;;;13.00;5.38;;;;;;;-1.93;100.00;101471.94;6239104;23;20020;-73
2023/04/06 02:59:44;;;;;;;14.43;5.78;;;;;;;-1.86;100.00;101472.53;6238742;23;20030;-73
2023/04/06 03:02:10;;;;;;;11.68;5.43;;;;;;;-2.01;100.00;101476.66;6238996;23;20098;-72
2023/04/06 03:04:37;;;;;;;12.98;6.20;;;;;;;-2.07;100.00;101478.66;6240563;23;20095;-72
2023/04/06 03:07:04;;;;;;;13.25;6.07;;;;;;;-2.21;100.00;101479.19;6239293;23;20032;-72
2023/04/06 03:09:30;;;;;;;20.23;5.93;;;;;;;-2.20;100.00;101480.91;6203400;23;20453;-71
2023/04/06 03:11:57;;;;;;;12.43;5.38;;;;;;;-2.13;100.00;101482.38;6222465;23;20020;-71
2023/04/06 03:14:24;;;;;;;11.70;5.60;;;;;;;-2.05;100.00;101480.31;6239895;23;20095;-73
2023/04/06 03:16:50;;;;;;;13.43;6.18;;;;;;;-2.08;100.00;101476.97;6240360;23;20039;-71
2023/04/06 03:19:17;;;;;;;14.35;6.38;;;;;;;-2.11;100.00;101481.41;6241307;23;20024;-72
2023/04/06 03:21:43;;;;;;;9.38;5.75;;;;;;;-2.06;100.00;101485.63;6239764;23;20022;-73
2023/04/06 03:24:10;;;;;;;12.65;5.18;;;;;;;-2.06;100.00;101483.88;6240557;23;20024;-72
2023/04/06 03:26:37;;;;;;;17.88;6.60;;;;;;;-2.10;100.00;101482.25;6239429;23;20103;-72
2023/04/06 03:29:03;;;;;;;11.15;5.90;;;;;;;-2.10;100.00;101484.88;6241002;22;20361;-72
2023/04/06 03:31:30;;;;;;;17.08;5.40;;;;;;;-2.11;100.00;101488.44;6240547;23;20091;-72
2023/04/06 03:33:56;;;;;;;12.98;5.97;;;;;;;-2.14;100.00;101485.94;6240658;23;20016;-73
2023/04/06 03:36:23;;;;;;;13.95;5.80;;;;;;;-2.24;100.00;101489.84;6241781;23;20030;-72
2023/04/06 03:38:49;;;;;;;8.73;5.40;;;;;;;-2.18;100.00;101494.84;6242226;23;20407;-72
2023/04/06 03:41:16;;;;;;;10.73;5.90;;;;;;;-2.15;100.00;101492.97;6241998;23;20476;-72
2023/04/06 03:43:42;;;;;;;12.02;6.25;;;;;;;-2.25;100.00;101494.22;6239846;23;20078;-73
2023/04/06 03:46:09;;;;;;;16.13;5.88;;;;;;;-2.37;100.00;101498.19;6242680;23;20531;-72
2023/04/06 03:48:36;;;;;;;16.23;6.63;;;;;;;-2.16;100.00;101503.56;6242092;23;20020;-72
2023/04/06 03:51:02;;;;;;;13.77;5.63;;;;;;;-2.19;100.00;101509.78;6241604;22;20453;-71
2023/04/06 03:53:29;;;;;;;14.68;5.68;;;;;;;-2.35;100.00;101506.88;6241884;23;20028;-73
2023/04/06 03:55:56;;;;;;;13.05;6.22;;;;;;;-2.21;100.00;101510.75;6239961;23;20024;-72
2023/04/06 03:58:22;;;;;;;8.98;5.55;;;;;;;-2.20;100.00;101510.69;6241796;23;20361;-71
2023/04/06 04:00:49;;;;;;;17.65;5.90;;;;;;;-2.11;100.00;101510.31;6242242;23;20024;-73
2023/04/06 04:03:15;;;;;;;12.90;5.88;;;;;;;-2.05;100.00;101509.25;6240459;23;20096;-73
2023/04/06 04:05:43;;;;;;;17.75;6.43;;;;;;;-2.01;100.00;101509.97;6240690;23;20051;-73
2023/04/06 04:08:09;;;;;;;12.60;5.95;;;;;;;-2.02;100.00;101513.53;6241303;23;20461;-73
2023/04/06 04:10:36;;;;;;;15.50;6.72;;;;;;;-1.96;100.00;101516.75;6231864;23;20035;-73
2023/04/06 04:13:02;;;;;;;15.32;6.05;;;;;;;-1.91;100.00;101520.06;6240548;23;20115;-72
2023/04/06 04:15:29;;;;;;;18.63;6.28;;;;;;;-1.91;100.00;101516.59;6241760;23;20356;-71
2023/04/06 04:17:55;;;;;;;12.30;6.72;;;;;;;-1.84;100.00;101522.47;6242353;23;20027;-71
2023/04/06 04:20:22;;;;;;;15.55;6.85;;;;;;;-1.88;100.00;101521.72;6240676;23;20016;-71
2023/04/06 04:22:49;;;;;;;15.70;7.38;;;;;;;-1.87;100.00;101511.13;6242856;23;20020;-73
2023/04/06 04:25:15;;;;;;;11.25;6.50;;;;;;;-1.93;100.00;101518.41;6241786;23;20024;-72
2023/04/06 04:27:42;;;;;;;17.27;7.25;;;;;;;-1.91;100.00;101524.47;6242668;23;20454;-71
2023/04/06 04:30:09;;;;;;;25.60;7.10;;;;;;;-1.95;100.00;101522.91;6241199;22;20024;-71
2023/04/06 04:32:35;;;;;;;14.77;7.63;;;;;;;-2.02;100.00;101527.53;6241127;23;20112;-71
2023/04/06 04:35:02;;;;;;;21.98;8.48;;;;;;;-2.01;100.00;101520.50;6240827;23;20020;-73
2023/04/06 04:37:29;;;;;;;15.55;7.68;;;;;;;-2.05;100.00;101522.41;6240755;23;20027;-73
2023/04/06 04:39:55;;;;;;;17.80;8.13;;;;;;;-1.98;100.00;101518.59;6240207;23;20024;-71
2023/04/06 04:42:22;;;;;;;18.08;8.18;;;;;;;-1.92;100.00;101526.25;6240626;23;20024;-70
2023/04/06 04:44:48;;;;;;;18.83;8.43;;;;;;;-1.86;100.00;101522.50;6241531;23;20090;-71
2023/04/06 04:47:15;;;;;;;20.88;9.15;;;;;;;-1.94;100.00;101517.56;6222022;23;20028;-72
2023/04/06 04:49:41;;;;;;;19.52;9.68;;;;;;;-1.92;100.00;101523.63;6219824;23;20030;-72
2023/04/06 04:52:08;;;;;;;21.10;10.68;;;;;;;-1.98;100.00;101523.88;6239373;23;20475;-71
2023/04/06 04:54:34;;;;;;;19.92;9.27;;;;;;;-1.94;100.00;101525.44;6241083;23;20392;-72
2023/04/06 04:57:01;;;;;;;21.95;10.40;;;;;;;-1.93;100.00;101526.31;6241216;23;20511;-72
2023/04/06 04:59:29;;;;;;;22.35;9.85;;;;;;;-1.82;100.00;101531.13;6240782;23;20024;-73
2023/04/06 05:01:56;;;;;;;25.35;9.60;;;;;;;-1.88;100.00;101527.84;6241860;23;20396;-72
2023/04/06 05:04:23;;;;;;;20.55;9.65;;;;;;;-1.90;100.00;101534.06;6242142;22;20509;-73
2023/04/06 05:06:50;;;;;;;23.20;11.20;;;;;;;-1.89;100.00;101531.41;6241460;23;20016;-72
2023/04/06 05:09:17;;;;;;;18.38;10.07;;;;;;;-1.88;100.00;101533.09;6241255;23;20016;-73
2023/04/06 05:11:44;;;;;;;23.48;10.38;;;;;;;-1.89;100.00;101528.78;6240322;23;20020;-73
2023/04/06 05:14:10;;;;;;;28.70;10.77;;;;;;;-1.79;100.00;101533.66;6240471;23;20100;-73
2023/04/06 05:16:37;;;;;;;20.98;10.80;;;;;;;-1.72;100.00;101533.34;6240510;23;20042;-73
2023/04/06 05:19:03;;;;;;;20.23;10.32;;;;;;;-1.79;100.00;101531.88;6240060;23;20051;-73
2023/04/06 05:21:31;;;;;;;23.33;10.13;;;;;;;-1.66;100.00;101530.47;6239342;23;20020;-72
2023/04/06 05:23:58;;;;;;;22.90;10.80;;;;;;;-1.81;100.00;101531.09;6239907;23;20358;-73
2023/04/06 05:26:24;;;;;;;25.33;10.63;;;;;;;-1.71;100.00;101537.72;6237317;23;20016;-71
2023/04/06 05:28:51;;;;;;;31.40;10.77;;;;;;;-1.68;100.00;101536.69;6240901;22;20094;-73
2023/04/06 05:31:17;;;;;;;22.35;11.05;;;;;;;-1.57;100.00;101533.66;6240144;23;20099;-73
2023/04/06 05:33:44;;;;;;;19.52;10.25;;;;;;;-1.55;100.00;101537.94;6240775;23;20012;-71
2023/04/06 05:36:11;;;;;;;18.38;10.30;;;;;;;-1.41;100.00;101540.84;6211216;23;20024;-73
2023/04/06 05:38:40;;;;;;;22.17;10.80;;;;;;;-1.31;100.00;101536.06;6229717;23;20103;-73
2023/04/06 05:41:07;;;;;;;20.85;11.98;;;;;;;-1.30;100.00;101547.44;6240139;23;20024;-73
2023/04/06 05:43:33;;;;;;;23.00;10.85;;;;;;;-1.33;100.00;101548.44;6241432;23;20483;-73
2023/04/06 05:46:00;;;;;;;25.52;11.70;;;;;;;-1.29;100.00;101542.13;6242412;23;20015;-73
2023/04/06 05:48:26;;;;;;;21.58;10.55;;;;;;;-1.22;100.00;101548.00;6239362;23;20361;-73
2023/04/06 05:50:53;;;;;;;21.13;10.52;;;;;;;-1.23;100.00;101543.63;6237515;23;20095;-73
2023/04/06 05:53:20;;;;;;;19.73;11.13;;;;;;;-1.17;100.00;101540.75;6240571;23;20020;-73
2023/04/06 05:55:47;;;;;;;25.75;9.73;;;;;;;-1.10;100.00;101541.34;6238557;23;20020;-73
2023/04/06 05:58:14;;;;;;;21.38;9.50;;;;;;;-0.90;100.00;101544.84;6235491;22;20095;-73
2023/04/06 06:00:42;;;;;;;18.67;10.48;;;;;;;-0.92;100.00;101546.72;6240020;23;20036;-72
2023/04/06 06:03:09;;;;;;;19.00;9.40;;;;;;;-0.84;100.00;101540.25;6239707;22;20028;-72
2023/04/06 06:05:36;;;;;;;16.50;8.82;;;;;;;-0.67;100.00;101543.84;6239958;23;20020;-72
2023/04/06 06:08:03;;;;;;;18.42;8.48;;;;;;;-0.31;100.00;101550.19;6240941;23;20437;-72
2023/04/06 06:10:29;;;;;;;18.60;8.30;;;;;;;-0.07;100.00;101546.41;6251457;22;20032;-69
2023/04/06 06:12:56;;;;;;;15.85;8.32;;;;;;;-0.14;100.00;101550.25;6268589;22;20032;-71
2023/04/06 06:15:22;;;;;;;17.58;8.88;;;;;;;0.16;100.00;101545.34;6266038;22;20026;-72
2023/04/06 06:17:49;;;;;;;23.85;9.40;;;;;;;0.32;100.00;101545.44;6268180;22;20012;-70
2023/04/06 06:20:16;;;;;;;29.20;9.25;;;;;;;0.48;100.00;101549.06;6268962;22;20058;-71
2023/04/06 06:22:42;;;;;;;25.45;8.55;;;;;;;0.81;100.00;101553.59;6270609;22;20007;-72
2023/04/06 06:25:09;;;;;;;21.83;8.73;;;;;;;0.87;100.00;101557.72;6232009;22;20035;-71
2023/04/06 06:27:35;;;;;;;16.98;8.23;;;;;;;1.08;100.00;101553.13;6267397;22;20024;-71
2023/04/06 06:30:02;;;;;;;15.27;8.05;;;;;;;1.30;100.00;101551.13;6269254;22;20011;-71
2023/04/06 06:32:29;;;;;;;14.15;7.38;;;;;;;1.59;100.00;101557.50;6268044;22;20051;-73
2023/04/06 06:34:56;;;;;;;20.77;8.10;;;;;;;2.05;100.00;101548.88;6268414;22;20023;-70
2023/04/06 06:37:22;;;;;;;26.17;8.48;;;;;;;2.15;100.00;101550.94;6268475;22;20020;-72
2023/04/06 06:39:49;;;;;;;13.95;7.57;;;;;;;2.21;100.00;101544.44;6267618;22;20005;-72
2023/04/06 06:42:15;;;;;;;17.42;8.48;;;;;;;2.37;100.00;101550.59;6268545;22;20012;-72
2023/04/06 06:44:42;;;;;;;19.17;8.15;;;;;;;2.78;96.56;101547.34;6269979;22;20008;-72
2023/04/06 06:47:09;;;;;;;17.13;7.63;;;;;;;3.05;91.36;101557.28;6269316;22;20022;-70
2023/04/06 06:49:35;;;;;;;17.27;7.88;;;;;;;3.28;88.35;101561.22;6269373;22;20000;-71
2023/04/06 06:52:02;;;;;;;21.38;7.70;;;;;;;3.31;86.50;101561.03;6268352;22;20000;-72
2023/04/06 06:54:28;;;;;;;20.80;7.85;;;;;;;3.46;86.25;101560.09;6268685;22;20008;-72
2023/04/06 06:56:55;;;;;;;17.90;7.75;;;;;;;3.51;82.31;101567.75;6268357;22;20000;-72
2023/04/06 06:59:21;;;;;;;26.90;7.32;;;;;;;3.94;79.31;101565.13;6269099;22;20024;-71
2023/04/06 07:01:50;;;;;;;21.20;7.63;;;;;;;4.26;76.79;101568.38;6268944;22;20027;-71
2023/04/06 07:04:16;;;;;;;17.13;7.60;;;;;;;4.77;73.56;101566.81;6269667;22;20004;-72
2023/04/06 07:06:43;;;;;;;20.30;6.72;;;;;;;4.62;72.67;101562.50;6272545;22;20004;-71
2023/04/06 07:09:10;;;;;;;16.58;6.85;;;;;;;4.84;71.36;101563.75;6256453;22;20058;-72
2023/04/06 07:11:36;;;;;;;15.27;6.78;;;;;;;5.29;69.02;101568.59;6272166;22;21154;-71
2023/04/06 07:14:03;;;;;;;13.40;6.97;;;;;;;5.10;66.72;101565.47;6270631;22;20036;-72
2023/04/06 07:16:29;;;;;;;13.45;5.90;;;;;;;5.35;65.23;101563.81;6270407;22;20048;-71
2023/04/06 07:18:56;;;;;;;18.25;6.78;;;;;;;4.58;66.13;101567.16;6270878;22;20064;-70
2023/04/06 07:21:23;;;;;;;15.40;5.97;;;;;;;5.00;65.73;101559.94;6270892;22;20023;-71
2023/04/06 07:23:50;;;;;;;17.77;6.88;;;;;;;4.43;64.95;101554.03;6269494;22;20084;-71
2023/04/06 07:26:17;;;;;;;14.70;6.53;;;;;;;4.56;67.49;101554.94;6270107;22;20055;-72
2023/04/06 07:28:43;;;;;;;16.15;5.53;;;;;;;4.98;64.46;101561.00;6271308;22;19992;-71
2023/04/06 07:31:10;;;;;;;18.85;5.63;;;;;;;5.54;63.38;101566.91;6269555;22;20019;-71
2023/04/06 07:33:36;;;;;;;13.02;5.88;;;;;;;5.97;59.80;101554.06;6271397;22;20012;-72
2023/04/06 07:36:03;;;;;;;15.32;5.97;;;;;;;6.69;57.86;101554.16;6270538;22;20004;-72
2023/04/06 07:38:30;;;;;;;11.18;5.22;;;;;;;6.38;57.47;101552.06;6269680;22;20004;-73
2023/04/06 07:40:57;;;;;;;20.33;5.82;;;;;;;6.23;55.67;101556.69;6254383;22;20004;-73
2023/04/06 07:43:23;;;;;;;11.07;5.97;;;;;;;6.86;55.48;101549.38;6270634;22;20012;-73
2023/04/06 07:45:50;;;;;;;18.58;6.30;;;;;;;7.16;54.10;101543.53;6270068;22;20007;-73
2023/04/06 07:48:17;;;;;;;14.15;5.55;;;;;;;6.03;54.39;101549.28;6271627;22;20342;-70
2023/04/06 07:50:43;;;;;;;13.80;5.00;;;;;;;7.15;54.15;101545.34;6262007;22;20060;-70
2023/04/06 07:53:10;;;;;;;13.30;4.53;;;;;;;7.80;51.68;101549.16;6270502;22;20031;-71
2023/04/06 07:55:36;;;;;;;12.65;4.50;;;;;;;7.83;50.90;101548.09;6269379;22;20046;-71
2023/04/06 07:58:03;;;;;;;8.10;4.72;;;;;;;7.07;52.91;101547.75;6269634;22;20080;-72
2023/04/06 08:00:30;;;;;;;8.63;5.03;;;;;;;8.40;49.93;101549.75;6270190;22;20091;-72
2023/04/06 08:02:56;;;;;;;14.30;4.80;;;;;;;8.72;47.77;101554.25;6269258;23;20004;-71
2023/04/06 08:05:23;;;;;;;10.73;4.15;;;;;;;8.58;48.76;101548.22;6264099;22;20012;-71
2023/04/06 08:07:50;;;;;;;11.80;4.40;;;;;;;8.48;48.79;101546.44;6268500;23;20066;-72
2023/04/06 08:10:16;;;;;;;10.32;5.30;;;;;;;8.25;49.45;101538.44;6269237;22;20012;-71
2023/04/06 08:12:43;;;;;;;15.27;4.50;;;;;;;7.44;49.91;101539.56;6265546;23;20064;-71
2023/04/06 08:15:10;;;;;;;9.55;4.20;;;;;;;8.26;49.23;101552.66;6268432;23;20027;-71
2023/04/06 08:17:36;;;;;;;7.13;3.67;;;;;;;8.19;48.01;101541.63;6261743;23;20100;-71
2023/04/06 08:20:03;;;;;;;9.98;3.30;;;;;;;8.30;48.54;101546.13;6269856;23;20016;-72
2023/04/06 08:22:30;;;;;;;9.00;3.80;;;;;;;7.02;48.77;101552.59;6266017;22;20020;-71
2023/04/06 08:24:56;;;;;;;11.52;4.78;;;;;;;7.28;49.88;101555.06;6267918;23;20024;-71
2023/04/06 08:27:23;;;;;;;10.45;3.83;;;;;;;7.19;48.16;101551.31;6268984;22;20023;-71
2023/04/06 08:29:50;;;;;;;9.38;3.90;;;;;;;7.41;47.10;101550.50;6269095;22;20012;-72
2023/04/06 08:32:17;;;;;;;7.13;3.70;;;;;;;7.26;46.71;101546.34;6269100;22;20008;-71
2023/04/06 08:34:43;;;;;;;10.52;3.63;;;;;;;7.27;46.00;101553.38;6268015;22;20012;-73
2023/04/06 08:37:10;;;;;;;6.18;2.92;;;;;;;7.18;45.67;101547.75;6268965;23;20023;-72
2023/04/06 08:39:36;;;;;;;5.75;3.47;;;;;;;7.83;45.29;101540.91;6267304;23;20016;-71
2023/04/06 08:42:03;;;;;;;11.25;4.13;;;;;;;8.49;44.08;101550.78;6268289;23;20052;-72
2023/04/06 08:44:31;;;;;;;9.40;4.00;;;;;;;7.76;44.48;101546.88;6260678;23;20008;-72
2023/04/06 08:46:59;;;;;;;7.25;3.60;;;;;;;8.82;42.67;101544.47;6268432;23;20024;-72
2023/04/06 08:49:26;;;;;;;7.53;3.60;;;;;;;8.90;41.70;101542.00;6266643;23;20241;-71
2023/04/06 08:51:54;;;;;;;8.63;3.50;;;;;;;9.15;41.84;101542.59;6260518;23;20080;-73
2023/04/06 08:54:20;;;;;;;6.85;3.15;;;;;;;8.45;41.94;101544.84;6264021;23;20036;-73
2023/04/06 08:56:48;;;;;;;9.13;3.70;;;;;;;7.68;42.58;101544.81;6264315;23;20064;-73
2023/04/06 08:59:15;;;;;;;8.98;3.25;;;;;;;8.23;41.81;101548.44;6266514;23;20024;-72
2023/04/06 09:01:44;;;;;;;8.00;2.80;;;;;;;8.09;41.58;101541.53;6267688;23;20027;-72
2023/04/06 09:04:11;;;;;;;10.85;3.47;;;;;;;9.03;40.65;101544.50;6266535;23;20016;-72
2023/04/06 09:06:40;;;;;;;4.50;2.72;;;;;;;9.14;39.51;101541.75;6264908;23;20024;-71
2023/04/06 09:09:07;;;;;;;6.22;2.72;;;;;;;10.13;38.58;101542.06;6266458;23;20027;-72
2023/04/06 09:11:51;;;;;;;10.23;3.00;;;;;;;9.55;38.75;101546.25;6265940;23;20024;-71
2023/04/06 09:14:34;;;;;;;5.10;2.42;;;;;;;7.34;40.55;101538.59;6259533;23;20031;-72
2023/04/06 09:17:01;;;;;;;8.45;2.80;;;;;;;9.18;38.76;101532.47;6265146;23;20035;-72
2023/04/06 09:19:28;;;;;;;4.90;2.40;;;;;;;9.52;37.21;101533.13;6260488;23;20031;-72
2023/04/06 09:22:06;;;;;;;3.80;2.20;;;;;;;9.57;36.85;101530.88;6265973;23;20000;-72
2023/04/06 09:24:47;;;;;;;8.95;2.65;;;;;;;8.57;38.66;101532.28;6264593;23;20055;-72
2023/04/06 09:27:15;;;;;;;6.40;2.58;;;;;;;9.84;37.25;101521.41;6262424;23;20103;-72
2023/04/06 09:29:42;;;;;;;11.57;3.00;;;;;;;10.57;35.92;101513.09;6261967;22;20043;-73
2023/04/06 09:32:10;;;;;;;7.85;2.70;;;;;;;10.89;35.56;101508.25;6263355;23;20035;-73
2023/04/06 09:34:40;;;;;;;8.77;2.25;;;;;;;10.47;34.96;101519.25;6266926;22;20016;-73
2023/04/06 09:37:17;;;;;;;7.85;2.40;;;;;;;8.88;35.97;101519.84;6266790;23;20032;-73
2023/04/06 09:39:46;;;;;;;4.38;2.40;;;;;;;10.03;34.85;101520.63;6266763;22;20035;-72
2023/04/06 09:42:34;;;;;;;5.55;2.40;;;;;;;9.50;36.04;101523.50;6266477;22;20015;-73
2023/04/06 09:45:02;;;;;;;10.40;2.33;;;;;;;9.31;36.38;101516.25;6267156;23;20024;-71
2023/04/06 09:47:30;;;;;;;6.65;2.58;;;;;;;10.82;35.04;101506.31;6265869;23;20019;-71
2023/04/06 09:49:59;;;;;;;5.03;2.17;;;;;;;10.60;34.73;101510.97;6265410;23;20028;-72
2023/04/06 09:52:30;;;;;;;9.05;2.65;;;;;;;9.94;34.59;101514.25;6265303;22;20031;-72
2023/04/06 09:55:01;;;;;;;6.73;2.67;;;;;;;11.04;33.37;101505.16;6265830;23;20051;-72
2023/04/06 09:57:55;;;;;;;3.50;2.03;;;;;;;11.23;32.82;101499.72;6265657;23;20258;-74
2023/04/06 10:00:23;;;;;;;6.25;2.13;;;;;;;9.03;34.52;101510.53;6266728;23;20334;-73
2023/04/06 10:03:11;;;;;;;4.65;2.42;;;;;;;8.23;35.10;101504.81;6267413;23;20088;-73
2023/04/06 10:05:45;;;;;;;3.25;1.90;;;;;;;10.43;33.37;101491.03;6267448;23;20027;-73
2023/04/06 10:08:14;;;;;;;5.28;2.25;;;;;;;10.35;32.58;101493.56;6227780;22;20009;-72
2023/04/06 10:10:41;;;;;;;3.45;2.30;;;;;;;11.32;31.71;101489.97;6268192;22;20175;-74
2023/04/06 10:13:10;;;;;;;4.80;2.15;;;;;;;10.85;31.80;101487.22;6267849;22;20046;-74
2023/04/06 10:15:38;;;;;;;3.63;1.98;;;;;;;11.51;31.53;101481.81;6269429;22;20055;-73
2023/04/06 10:18:07;;;;;;;8.57;2.47;;;;;;;11.49;31.99;101491.03;6268628;22;20152;-74
2023/04/06 10:20:36;;;;;;;6.80;2.35;;;;;;;10.22;32.73;101487.63;6269343;23;20030;-72
2023/04/06 10:23:23;;;;;;;3.88;1.90;;;;;;;8.53;35.09;101496.91;6269967;22;20034;-73
2023/04/06 10:25:58;;;;;;;4.28;2.47;;;;;;;10.78;32.74;101486.94;6269545;22;20031;-72
2023/04/06 10:28:30;;;;;;;9.35;4.10;;;;;;;11.36;31.95;101491.34;6268940;22;20012;-73
2023/04/06 10:30:58;;;;;;;7.35;2.50;;;;;;;11.62;31.79;101472.72;6270144;22;20031;-74
2023/04/06 10:33:26;;;;;;;3.88;1.95;;;;;;;11.21;32.11;101475.72;6271218;22;20030;-72
2023/04/06 10:35:55;;;;;;;2.50;1.85;;;;;;;9.13;31.44;101488.31;6269778;22;20004;-73
2023/04/06 10:38:33;;;;;;;10.02;2.28;;;;;;;9.86;32.16;101481.91;6270043;22;20006;-71
2023/04/06 10:41:05;;;;;;;4.55;2.70;;;;;;;9.66;32.68;101486.38;6270564;22;20007;-72
2023/04/06 10:43:38;;;;;;;;;;;;;;;10.07;31.56;101491.72;6265511;22;20008;-74
2023/04/06 10:46:06;;;;;;;9.75;3.08;;;;;;;9.03;32.27;101494.47;6269322;22;19910;-72
2023/04/06 10:48:45;;;;;;;5.15;2.58;;;;;;;9.44;32.24;101495.44;6270653;22;20038;-73
2023/04/06 10:51:13;;;;;;;7.38;3.22;;;;;;;9.16;33.02;101485.38;6270405;22;20004;-73
2023/04/06 10:53:47;;;;;;;8.95;2.40;;;;;;;8.89;33.95;101486.78;6265542;22;20039;-72
2023/04/06 10:56:17;;;;;;;5.60;2.38;;;;;;;8.14;34.36;101482.34;6264009;22;20032;-72
2023/04/06 10:58:46;;;;;;;3.58;2.00;;;;;;;7.69;35.16;101484.22;6269503;22;20000;-71
2023/04/06 11:01:16;;;;;;;7.50;2.25;;;;;;;7.68;35.40;101482.53;6270349;22;20008;-71
2023/04/06 11:03:48;;;;;;;7.63;2.25;;;;;;;8.00;35.31;101478.13;6269989;22;20015;-73
2023/04/06 11:06:26;;;;;;;4.15;2.30;;;;;;;9.02;34.29;101468.72;6270174;22;20057;-72
2023/04/06 11:08:54;;;;;;;6.70;2.47;;;;;;;9.49;32.68;101471.78;6270742;22;20010;-73
2023/04/06 11:11:23;;;;;;;5.65;3.10;;;;;;;9.07;33.33;101466.47;6270366;22;20048;-73
2023/04/06 11:13:57;;;;;;;5.90;2.80;;;;;;;9.76;32.73;101464.97;6270721;22;20015;-72
2023/04/06 11:16:26;;;;;;;4.80;2.38;;;;;;;10.54;32.01;101454.34;6269478;22;20012;-72
2023/04/06 11:19:05;;;;;;;3.97;2.08;;;;;;;10.45;31.73;101450.66;6263822;22;20004;-73